Time;durP1;ratioP1;P1;durP2;ratioP2;P2;SDS_P1;SDS_P2;PMS_P1;PMS_P2;Temp;Humidity;BMP_temperature;BMP_pressure;BME280_temperature;BME280_humidity;BME280_pressure;Samples;Min_cycle;Max_cycle;Signal;HPM_P1;HPM_P2
2023/01/14 00:02:19;;;;;;;58.42;31.40;;;;;;;-142.91;100.00;56616.03;4989620;28;20662;-69
2023/01/14 00:04:46;;;;;;;54.63;28.25;;;;;;;-142.91;100.00;56616.03;4990665;28;20218;-67
2023/01/14 00:07:16;;;;;;;64.57;31.63;;;;;;;-142.91;100.00;56616.03;4990321;28;20208;-69
2023/01/14 00:09:43;;;;;;;69.72;33.38;;;;;;;-142.91;100.00;56616.03;4988644;28;20203;-67
2023/01/14 00:12:10;;;;;;;63.33;30.45;;;;;;;-142.91;100.00;56616.03;4988887;28;20235;-68
2023/01/14 00:14:36;;;;;;;67.47;33.83;;;;;;;-142.91;100.00;56616.03;4988683;28;20219;-68
2023/01/14 00:17:03;;;;;;;59.70;31.35;;;;;;;-142.91;100.00;56616.03;4989994;28;20214;-67
2023/01/14 00:19:30;;;;;;;56.65;30.88;;;;;;;-142.91;100.00;56616.03;4987383;28;20234;-68
2023/01/14 00:21:57;;;;;;;57.17;30.17;;;;;;;-142.91;100.00;56616.03;4988898;28;20208;-69
2023/01/14 00:24:25;;;;;;;59.08;31.45;;;;;;;-142.91;100.00;56616.03;4988606;28;20214;-69
2023/01/14 00:26:54;;;;;;;59.15;29.77;;;;;;;-142.91;100.00;56616.03;4989259;28;20196;-69
2023/01/14 00:29:23;;;;;;;51.90;28.23;;;;;;;-142.91;100.00;56616.03;4988812;28;20211;-69
2023/01/14 00:31:51;;;;;;;51.78;28.35;;;;;;;-142.91;100.00;56616.03;4988865;28;20211;-69
2023/01/14 00:34:17;;;;;;;45.00;26.42;;;;;;;-142.91;100.00;56616.03;4989241;28;20231;-68
2023/01/14 00:36:45;;;;;;;47.42;26.63;;;;;;;-142.91;100.00;56616.03;4989242;28;20226;-69
2023/01/14 00:39:12;;;;;;;47.42;25.65;;;;;;;-142.91;100.00;56616.03;4989280;28;20265;-69
2023/01/14 00:41:41;;;;;;;45.10;26.05;;;;;;;-142.91;100.00;56616.03;4988855;28;20342;-68
2023/01/14 00:44:07;;;;;;;49.25;25.42;;;;;;;-142.91;100.00;56616.03;4987191;28;21124;-68
2023/01/14 00:46:36;;;;;;;48.17;25.83;;;;;;;-142.91;100.00;56616.03;4989658;28;20441;-70
2023/01/14 00:49:06;;;;;;;46.15;26.70;;;;;;;-142.91;100.00;56616.03;4988485;28;20258;-69
2023/01/14 00:51:34;;;;;;;47.03;25.27;;;;;;;-142.91;100.00;56616.03;4986972;28;20211;-68
2023/01/14 00:54:03;;;;;;;45.55;25.10;;;;;;;-142.91;100.00;56616.03;4988488;28;20451;-68
2023/01/14 00:56:29;;;;;;;45.72;25.90;;;;;;;-142.91;100.00;56616.03;4988287;28;20901;-68
2023/01/14 00:58:58;;;;;;;50.78;26.77;;;;;;;-142.91;100.00;56616.03;4987931;28;20885;-70
2023/01/14 01:01:25;;;;;;;43.75;25.60;;;;;;;-142.91;100.00;56616.03;4990496;28;20208;-67
2023/01/14 01:03:54;;;;;;;42.78;23.38;;;;;;;-142.91;100.00;56616.03;4987844;28;20705;-68
2023/01/14 01:06:23;;;;;;;39.53;23.33;;;;;;;-142.91;100.00;56616.03;4988290;28;20565;-67
2023/01/14 01:08:51;;;;;;;44.03;24.58;;;;;;;-142.91;100.00;56616.03;4989025;28;20203;-67
2023/01/14 01:11:18;;;;;;;53.33;25.83;;;;;;;-142.91;100.00;56616.03;4988662;28;20219;-69
2023/01/14 01:13:45;;;;;;;43.72;25.30;;;;;;;-142.91;100.00;56616.03;4988345;28;20734;-69
2023/01/14 01:16:15;;;;;;;41.10;24.58;;;;;;;-142.91;100.00;56616.03;4987438;28;20701;-69
2023/01/14 01:18:43;;;;;;;43.00;23.90;;;;;;;-142.91;100.00;56616.03;4988531;28;20703;-69
2023/01/14 01:21:12;;;;;;;42.10;24.42;;;;;;;-142.91;100.00;56616.03;4987457;28;20404;-70
2023/01/14 01:23:40;;;;;;;33.38;20.58;;;;;;;-142.91;100.00;56616.03;4987467;28;20206;-69
2023/01/14 01:26:11;;;;;;;33.63;19.95;;;;;;;-142.91;100.00;56616.03;4987080;28;20207;-69
2023/01/14 01:28:38;;;;;;;29.05;16.83;;;;;;;-142.91;100.00;56616.03;4988111;28;20218;-68
2023/01/14 01:31:07;;;;;;;20.35;14.98;;;;;;;-142.91;100.00;56616.03;4989341;28;20225;-68
2023/01/14 01:33:36;;;;;;;19.10;13.05;;;;;;;-142.91;100.00;56616.03;4987621;28;20357;-70
2023/01/14 01:36:05;;;;;;;16.90;13.07;;;;;;;-142.91;100.00;56616.03;4986749;28;20227;-70
2023/01/14 01:38:33;;;;;;;17.95;13.15;;;;;;;-142.91;100.00;56616.03;4988274;28;20222;-69
2023/01/14 01:41:00;;;;;;;19.33;13.10;;;;;;;-142.91;100.00;56616.03;4987744;28;20643;-67
2023/01/14 01:43:30;;;;;;;18.38;14.07;;;;;;;-142.91;100.00;56616.03;4986824;28;20207;-67
2023/01/14 01:45:57;;;;;;;21.10;16.40;;;;;;;-142.91;100.00;56616.03;4986016;28;20371;-67
2023/01/14 01:48:27;;;;;;;23.00;15.88;;;;;;;-142.91;100.00;56616.03;4986876;28;20240;-68
2023/01/14 01:51:02;;;;;;;25.50;16.45;;;;;;;-142.91;100.00;56616.03;4989210;28;20226;-68
2023/01/14 01:53:30;;;;;;;25.92;17.85;;;;;;;-142.91;100.00;56616.03;4986218;28;20353;-69
2023/01/14 01:55:58;;;;;;;25.10;17.42;;;;;;;-142.91;100.00;56616.03;4988636;28;20647;-69
2023/01/14 01:58:27;;;;;;;27.17;17.83;;;;;;;-142.91;100.00;56616.03;4987067;28;20246;-70
2023/01/14 02:00:54;;;;;;;23.65;16.67;;;;;;;-142.91;100.00;56616.03;4987949;28;20214;-67
2023/01/14 02:03:25;;;;;;;24.15;16.92;;;;;;;-142.91;100.00;56616.03;4988239;28;20523;-71
2023/01/14 02:05:53;;;;;;;25.50;16.23;;;;;;;-142.91;100.00;56616.03;4986721;28;20212;-68
2023/01/14 02:08:21;;;;;;;26.60;17.10;;;;;;;-142.91;100.00;56616.03;4988265;28;20199;-69
2023/01/14 02:11:20;;;;;;;22.75;16.50;;;;;;;-142.91;100.00;56616.03;4988973;28;20257;-68
2023/01/14 02:13:59;;;;;;;26.40;16.43;;;;;;;-142.91;100.00;56616.03;4985971;28;20237;-69
2023/01/14 02:16:38;;;;;;;25.30;17.02;;;;;;;-142.91;100.00;56616.03;4984663;28;20216;-70
2023/01/14 02:19:16;;;;;;;27.27;16.95;;;;;;;-142.91;100.00;56616.03;4987514;28;20222;-69
2023/01/14 02:21:48;;;;;;;26.40;16.77;;;;;;;-142.91;100.00;56616.03;4988303;28;20211;-67
2023/01/14 02:24:57;;;;;;;27.00;17.67;;;;;;;-142.91;100.00;56616.03;4986674;28;20779;-69
2023/01/14 02:27:45;;;;;;;22.10;14.90;;;;;;;-142.91;100.00;56616.03;4985983;28;20265;-68
2023/01/14 02:30:43;;;;;;;19.52;14.57;;;;;;;-142.91;100.00;56616.03;4988058;28;20204;-68
2023/01/14 02:33:31;;;;;;;24.88;15.75;;;;;;;-142.91;100.00;56616.03;4988720;28;20277;-68
2023/01/14 02:36:06;;;;;;;17.73;13.23;;;;;;;-142.91;100.00;56616.03;4987442;28;20208;-68
2023/01/14 02:38:39;;;;;;;20.92;14.13;;;;;;;-142.91;100.00;56616.03;4987703;28;21267;-69
2023/01/14 02:41:15;;;;;;;19.15;13.60;;;;;;;-142.91;100.00;56616.03;4986964;28;20236;-69
2023/01/14 02:46:38;;;;;;;18.65;13.40;;;;;;;-142.91;100.00;56616.03;4989671;28;20264;-68
2023/01/14 02:49:08;;;;;;;19.83;13.57;;;;;;;-142.91;100.00;56616.03;4990415;28;20211;-68
2023/01/14 02:51:35;;;;;;;21.73;14.43;;;;;;;-142.91;100.00;56616.03;4991047;28;20207;-68
2023/01/14 02:54:03;;;;;;;19.95;13.70;;;;;;;-142.91;100.00;56616.03;4991318;28;20257;-69
2023/01/14 02:56:30;;;;;;;21.95;13.93;;;;;;;-142.91;100.00;56616.03;4990835;28;20676;-69
2023/01/14 02:59:35;;;;;;;19.75;14.93;;;;;;;-142.91;100.00;56616.03;4990315;28;20261;-68
2023/01/14 03:02:26;;;;;;;19.77;14.32;;;;;;;-142.91;100.00;56616.03;4912496;28;20215;-68
2023/01/14 03:05:29;;;;;;;20.77;13.88;;;;;;;-142.91;100.00;56616.03;4907985;28;20218;-69
2023/01/14 03:08:00;;;;;;;24.27;14.10;;;;;;;-142.91;100.00;56616.03;4976171;28;20900;-68
2023/01/14 03:10:34;;;;;;;23.20;15.55;;;;;;;-142.91;100.00;56616.03;4990278;28;20215;-68
2023/01/14 03:13:14;;;;;;;20.30;14.45;;;;;;;-142.91;100.00;56616.03;4990288;28;20257;-67
2023/01/14 03:15:47;;;;;;;21.63;15.18;;;;;;;-142.91;100.00;56616.03;4991156;28;20203;-67
2023/01/14 03:18:24;;;;;;;19.35;14.18;;;;;;;-142.91;100.00;56616.03;4989545;28;20653;-67
2023/01/14 03:20:57;;;;;;;23.27;14.27;;;;;;;-142.91;100.00;56616.03;4990488;28;20684;-69
2023/01/14 03:23:26;;;;;;;18.67;13.82;;;;;;;-142.91;100.00;56616.03;4990740;28;20562;-69
2023/01/14 03:25:55;;;;;;;20.48;14.52;;;;;;;-142.91;100.00;56616.03;4990885;28;20219;-70
2023/01/14 03:28:27;;;;;;;19.42;14.88;;;;;;;-142.91;100.00;56616.03;4989478;28;20302;-67
2023/01/14 03:30:59;;;;;;;25.45;16.42;;;;;;;-142.91;100.00;56616.03;4988540;28;20862;-68
2023/01/14 03:33:34;;;;;;;24.65;14.77;;;;;;;-142.91;100.00;56616.03;4988438;28;20223;-68
2023/01/14 03:36:03;;;;;;;25.02;14.95;;;;;;;-142.91;100.00;56616.03;4988152;28;20194;-67
2023/01/14 03:38:35;;;;;;;24.83;15.77;;;;;;;-142.91;100.00;56616.03;4987387;28;20204;-69
2023/01/14 03:41:04;;;;;;;23.95;15.60;;;;;;;-142.91;100.00;56616.03;4991990;28;20235;-69
2023/01/14 03:43:38;;;;;;;22.88;16.20;;;;;;;-142.91;100.00;56616.03;4989794;28;20705;-69
2023/01/14 03:46:05;;;;;;;24.38;16.65;;;;;;;-142.91;100.00;56616.03;4988656;28;20200;-69
2023/01/14 03:48:33;;;;;;;23.50;16.65;;;;;;;-142.91;100.00;56616.03;4989710;28;20269;-69
2023/01/14 03:51:11;;;;;;;28.30;16.77;;;;;;;-142.91;100.00;56616.03;4990101;28;20259;-70
2023/01/14 03:53:46;;;;;;;22.85;16.55;;;;;;;-142.91;100.00;56616.03;4990856;28;20224;-68
2023/01/14 03:56:22;;;;;;;25.27;17.55;;;;;;;-142.91;100.00;56616.03;4988830;28;20237;-68
2023/01/14 03:58:55;;;;;;;23.77;16.15;;;;;;;-142.91;100.00;56616.03;4990117;28;20206;-68
2023/01/14 04:01:28;;;;;;;31.17;17.90;;;;;;;-142.91;100.00;56616.03;4990626;28;20207;-69
2023/01/14 04:03:58;;;;;;;21.85;16.15;;;;;;;-142.91;100.00;56616.03;4991078;28;20673;-69
2023/01/14 04:06:25;;;;;;;24.92;17.45;;;;;;;-142.91;100.00;56616.03;4990168;28;20203;-68
2023/01/14 04:08:52;;;;;;;24.80;15.85;;;;;;;-142.91;100.00;56616.03;4989776;28;20239;-69
2023/01/14 04:11:19;;;;;;;24.38;16.55;;;;;;;-142.91;100.00;56616.03;4990511;28;20214;-69
2023/01/14 04:16:30;;;;;;;26.08;17.55;;;;;;;-142.91;100.00;56616.03;4988880;28;20238;-69
2023/01/14 04:18:58;;;;;;;23.98;15.25;;;;;;;-142.91;100.00;56616.03;4989425;28;20299;-69
2023/01/14 04:21:25;;;;;;;27.05;16.67;;;;;;;-142.91;100.00;56616.03;4988056;28;20203;-69
2023/01/14 04:23:52;;;;;;;21.02;16.02;;;;;;;-142.91;100.00;56616.03;4989143;28;20191;-69
2023/01/14 04:26:18;;;;;;;31.75;18.02;;;;;;;-142.91;100.00;56616.03;4989443;28;20673;-68
2023/01/14 04:28:45;;;;;;;30.67;18.48;;;;;;;-142.91;100.00;56616.03;4989407;28;20199;-68
2023/01/14 04:31:12;;;;;;;29.50;18.42;;;;;;;-142.91;100.00;56616.03;4988482;28;20258;-69
2023/01/14 04:33:39;;;;;;;31.70;18.25;;;;;;;-142.91;100.00;56616.03;4988736;28;20349;-71
2023/01/14 04:36:07;;;;;;;26.60;15.73;;;;;;;-142.91;100.00;56616.03;4989060;28;20226;-68
2023/01/14 04:38:34;;;;;;;28.05;17.45;;;;;;;-142.91;100.00;56616.03;4989351;28;20237;-67
2023/01/14 04:41:01;;;;;;;31.27;19.38;;;;;;;-142.91;100.00;56616.03;4987244;28;20262;-68
2023/01/14 04:43:27;;;;;;;31.25;20.20;;;;;;;-142.91;100.00;56616.03;4989196;28;20211;-68
2023/01/14 04:45:55;;;;;;;29.45;19.33;;;;;;;-142.91;100.00;56616.03;4988132;28;20226;-69
2023/01/14 04:48:23;;;;;;;33.13;22.00;;;;;;;-142.91;100.00;56616.03;4988086;28;20669;-67
2023/01/14 04:50:50;;;;;;;35.63;22.98;;;;;;;-142.91;100.00;56616.03;4988863;28;20207;-67
2023/01/14 04:53:20;;;;;;;42.40;25.45;;;;;;;-142.91;100.00;56616.03;4989341;28;21116;-68
2023/01/14 04:55:49;;;;;;;50.45;25.38;;;;;;;-142.91;100.00;56616.03;4989884;28;20204;-69
2023/01/14 04:58:17;;;;;;;43.83;23.87;;;;;;;-142.91;100.00;56616.03;4988084;28;20258;-68
2023/01/14 05:00:45;;;;;;;36.65;23.35;;;;;;;-142.91;100.00;56616.03;4989660;28;20621;-69
2023/01/14 05:03:14;;;;;;;39.17;25.02;;;;;;;-142.91;100.00;56616.03;4989256;28;22845;-67
2023/01/14 05:05:41;;;;;;;40.75;25.50;;;;;;;-142.91;100.00;56616.03;4988574;28;20200;-70
2023/01/14 05:08:09;;;;;;;39.70;25.08;;;;;;;-142.91;100.00;56616.03;4989524;28;20203;-69
2023/01/14 05:10:38;;;;;;;38.97;25.15;;;;;;;-142.91;100.00;56616.03;4989449;28;20576;-68
2023/01/14 05:13:07;;;;;;;49.88;26.13;;;;;;;-142.91;100.00;56616.03;4988758;28;20235;-68
2023/01/14 05:15:36;;;;;;;45.58;27.27;;;;;;;-142.91;100.00;56616.03;4988514;28;20696;-70
2023/01/14 05:18:03;;;;;;;50.88;29.75;;;;;;;-142.91;100.00;56616.03;4988739;28;20700;-69
2023/01/14 05:20:31;;;;;;;45.97;28.58;;;;;;;-142.91;100.00;56616.03;4988223;28;20211;-69
2023/01/14 05:23:00;;;;;;;41.35;27.27;;;;;;;-142.91;100.00;56616.03;4987666;28;20219;-68
2023/01/14 05:25:27;;;;;;;45.88;27.60;;;;;;;-142.91;100.00;56616.03;4988826;28;20258;-68
2023/01/14 05:27:58;;;;;;;47.08;27.38;;;;;;;-142.91;100.00;56616.03;4988965;28;20204;-68
2023/01/14 05:30:25;;;;;;;48.95;28.42;;;;;;;-142.91;100.00;56616.03;4988578;28;20755;-70
2023/01/14 05:32:52;;;;;;;47.45;25.70;;;;;;;-142.91;100.00;56616.03;4988875;28;20688;-68
2023/01/14 05:35:19;;;;;;;46.15;26.88;;;;;;;-142.91;100.00;56616.03;4988596;28;20321;-69
2023/01/14 05:37:45;;;;;;;50.88;28.30;;;;;;;-142.91;100.00;56616.03;4988634;28;20203;-70
2023/01/14 05:40:12;;;;;;;50.40;30.10;;;;;;;-142.91;100.00;56616.03;4988070;28;20247;-68
2023/01/14 05:45:47;;;;;;;57.60;30.83;;;;;;;-142.91;100.00;56616.03;4987642;28;20289;-68
2023/01/14 05:48:15;;;;;;;44.47;27.45;;;;;;;-142.91;100.00;56616.03;4986803;28;20287;-68
2023/01/14 05:50:42;;;;;;;50.10;26.92;;;;;;;-142.91;100.00;56616.03;4987980;28;20302;-69
2023/01/14 05:53:09;;;;;;;50.15;27.00;;;;;;;-142.91;100.00;56616.03;4987121;28;20223;-67
2023/01/14 05:55:37;;;;;;;54.85;28.73;;;;;;;-142.91;100.00;56616.03;4987842;28;20235;-69
2023/01/14 05:58:06;;;;;;;44.03;27.58;;;;;;;-142.91;100.00;56616.03;4987324;28;20204;-70
2023/01/14 06:06:23;;;;;;;49.85;25.67;;;;;;;-142.91;100.00;56616.03;4988101;28;20238;-69
2023/01/14 06:08:50;;;;;;;44.00;25.13;;;;;;;-142.91;100.00;56616.03;4987844;28;20350;-69
2023/01/14 06:11:17;;;;;;;38.13;23.33;;;;;;;-142.91;100.00;56616.03;4988287;28;20203;-70
2023/01/14 06:13:44;;;;;;;39.75;23.00;;;;;;;-142.91;100.00;56616.03;4988608;28;20242;-69
2023/01/14 06:16:12;;;;;;;48.78;24.45;;;;;;;-142.91;100.00;56616.03;4988181;28;20812;-67
2023/01/14 06:18:42;;;;;;;37.28;21.58;;;;;;;-142.91;100.00;56616.03;4991509;28;20218;-68
2023/01/14 06:21:10;;;;;;;37.00;20.73;;;;;;;-142.91;100.00;56616.03;4991138;28;20768;-67
2023/01/14 06:23:37;;;;;;;36.22;21.42;;;;;;;-142.91;100.00;56616.03;4991739;28;20298;-70
2023/01/14 06:26:04;;;;;;;32.33;18.60;;;;;;;-142.91;100.00;56616.03;4991018;28;20204;-68
2023/01/14 06:28:31;;;;;;;38.30;18.70;;;;;;;-142.91;100.00;56616.03;4991960;28;20212;-70
2023/01/14 06:30:58;;;;;;;32.13;18.75;;;;;;;-142.91;100.00;56616.03;4992093;28;20215;-69
2023/01/14 06:33:26;;;;;;;28.75;18.48;;;;;;;-142.91;100.00;56616.03;4990854;28;20204;-69
2023/01/14 06:35:55;;;;;;;27.65;17.10;;;;;;;-142.91;100.00;56616.03;4990275;28;20257;-69
2023/01/14 06:38:22;;;;;;;27.02;15.25;;;;;;;-142.91;100.00;56616.03;4990432;28;20692;-69
2023/01/14 06:40:49;;;;;;;25.00;15.88;;;;;;;-142.91;100.00;56616.03;4990832;28;20242;-67
2023/01/14 06:43:15;;;;;;;25.90;18.42;;;;;;;-142.91;100.00;56616.03;4991666;28;20207;-67
2023/01/14 06:45:42;;;;;;;28.80;18.73;;;;;;;-142.91;100.00;56616.03;4990105;28;20200;-70
2023/01/14 06:48:09;;;;;;;33.25;20.25;;;;;;;-142.91;100.00;56616.03;4991541;28;20652;-67
2023/01/14 06:50:37;;;;;;;36.20;19.45;;;;;;;-142.91;100.00;56616.03;4992067;28;20234;-70
2023/01/14 06:53:04;;;;;;;32.90;19.23;;;;;;;-142.91;100.00;56616.03;4991904;28;20204;-70
2023/01/14 06:55:31;;;;;;;32.20;20.38;;;;;;;-142.91;100.00;56616.03;4990145;28;20231;-69
2023/01/14 06:57:57;;;;;;;35.15;22.08;;;;;;;-142.91;100.00;56616.03;4991689;28;20629;-69
2023/01/14 07:00:26;;;;;;;41.13;24.73;;;;;;;-142.91;100.00;56616.03;4991870;28;20212;-70
2023/01/14 07:02:52;;;;;;;37.97;23.35;;;;;;;-142.91;100.00;56616.03;4992772;28;20453;-71
2023/01/14 07:05:19;;;;;;;43.47;24.27;;;;;;;-142.91;100.00;56616.03;4991637;28;20234;-71
2023/01/14 07:07:48;;;;;;;38.15;24.15;;;;;;;-142.91;100.00;56616.03;4993470;28;20208;-68
2023/01/14 07:10:16;;;;;;;43.63;25.58;;;;;;;-142.91;100.00;56616.03;4990854;28;20309;-69
2023/01/14 07:12:47;;;;;;;43.78;24.67;;;;;;;-142.91;100.00;56616.03;4992303;28;20203;-69
2023/01/14 07:15:16;;;;;;;45.80;28.58;;;;;;;-142.91;100.00;56616.03;4989820;28;20234;-69
2023/01/14 07:17:43;;;;;;;45.83;28.73;;;;;;;-142.91;100.00;56616.03;4992394;28;21472;-67
2023/01/14 07:20:10;;;;;;;51.67;31.30;;;;;;;-142.91;100.00;56616.03;4992372;28;20234;-68
2023/01/14 07:22:37;;;;;;;43.10;28.15;;;;;;;-142.91;100.00;56616.03;4992435;28;20203;-69
2023/01/14 07:25:07;;;;;;;37.78;23.95;;;;;;;-142.91;100.00;56616.03;4989549;28;20200;-69
2023/01/14 07:27:34;;;;;;;38.38;23.17;;;;;;;-142.91;100.00;56616.03;4989705;28;20752;-71
2023/01/14 07:30:01;;;;;;;41.92;22.90;;;;;;;-142.91;100.00;56616.03;4990778;28;20208;-68
2023/01/14 07:32:28;;;;;;;35.30;20.15;;;;;;;-142.91;100.00;56616.03;4991108;28;20213;-69
2023/01/14 07:34:55;;;;;;;29.55;18.70;;;;;;;-142.91;100.00;56616.03;4992566;28;20709;-68
2023/01/14 07:37:21;;;;;;;25.02;17.08;;;;;;;-142.91;100.00;56616.03;4990229;28;20562;-68
2023/01/14 07:39:48;;;;;;;29.92;17.50;;;;;;;-142.91;100.00;56616.03;4991743;28;20266;-68
2023/01/14 07:42:19;;;;;;;25.02;16.40;;;;;;;-142.91;100.00;56616.03;4990869;28;20208;-69
2023/01/14 07:44:45;;;;;;;24.73;16.63;;;;;;;-142.91;100.00;56616.03;4989962;28;20605;-68
2023/01/14 07:47:13;;;;;;;23.92;15.75;;;;;;;-142.91;100.00;56616.03;4989140;28;20230;-67
2023/01/14 07:49:40;;;;;;;25.40;16.50;;;;;;;-142.91;100.00;56616.03;4990337;28;20210;-67
2023/01/14 07:52:08;;;;;;;28.10;19.35;;;;;;;-142.91;100.00;56616.03;4991212;28;22014;-70
2023/01/14 07:54:35;;;;;;;36.05;18.98;;;;;;;-142.91;100.00;56616.03;4990221;28;20238;-70
2023/01/14 07:57:01;;;;;;;39.67;22.67;;;;;;;-142.91;100.00;56616.03;4989844;28;20220;-69
2023/01/14 07:59:30;;;;;;;32.95;21.10;;;;;;;-142.91;100.00;56616.03;4991442;28;20207;-69
2023/01/14 08:01:56;;;;;;;30.20;17.42;;;;;;;-142.91;100.00;56616.03;4990256;28;20981;-68
2023/01/14 08:04:23;;;;;;;27.77;17.95;;;;;;;-142.91;100.00;56616.03;4989515;28;20307;-69
2023/01/14 08:06:50;;;;;;;31.00;18.38;;;;;;;-142.91;100.00;56616.03;4989558;28;20884;-68
2023/01/14 08:09:17;;;;;;;33.35;21.13;;;;;;;-142.91;100.00;56616.03;4990453;28;20222;-68
2023/01/14 08:11:44;;;;;;;63.67;34.67;;;;;;;-142.91;100.00;56616.03;4991357;28;20354;-70
2023/01/14 08:14:11;;;;;;;35.20;23.88;;;;;;;-142.91;100.00;56616.03;4989844;28;20199;-69
2023/01/14 08:16:40;;;;;;;31.65;20.25;;;;;;;-142.91;100.00;56616.03;4989475;28;20238;-69
2023/01/14 08:19:06;;;;;;;31.25;20.63;;;;;;;-142.91;100.00;56616.03;4991556;28;20196;-69
2023/01/14 08:21:33;;;;;;;27.70;18.60;;;;;;;-142.91;100.00;56616.03;4990916;28;20204;-67
2023/01/14 08:24:00;;;;;;;28.73;19.58;;;;;;;-142.91;100.00;56616.03;4988850;28;22147;-68
2023/01/14 08:26:27;;;;;;;33.58;20.85;;;;;;;-142.91;100.00;56616.03;4990176;28;20795;-69
2023/01/14 08:28:53;;;;;;;37.13;21.40;;;;;;;-142.91;100.00;56616.03;4990489;28;20216;-68
2023/01/14 08:31:21;;;;;;;29.83;19.35;;;;;;;-142.91;100.00;56616.03;4990213;28;20204;-67
2023/01/14 08:33:49;;;;;;;30.40;20.55;;;;;;;-142.91;100.00;56616.03;4990534;28;20318;-69
2023/01/14 08:36:17;;;;;;;32.13;20.48;;;;;;;-142.91;100.00;56616.03;4988336;28;20289;-68
2023/01/14 08:38:48;;;;;;;34.08;19.50;;;;;;;-142.91;100.00;56616.03;4989042;28;20227;-67
2023/01/14 08:41:17;;;;;;;35.28;20.67;;;;;;;-142.91;100.00;56616.03;4990475;28;20358;-69
2023/01/14 08:43:46;;;;;;;36.53;22.25;;;;;;;-142.91;100.00;56616.03;4990739;28;20207;-68
2023/01/14 08:46:13;;;;;;;30.88;21.20;;;;;;;-142.91;100.00;56616.03;4988115;28;20631;-68
2023/01/14 08:48:40;;;;;;;36.25;20.45;;;;;;;-142.91;100.00;56616.03;4988868;28;20199;-68
2023/01/14 08:51:10;;;;;;;33.13;20.15;;;;;;;-142.91;100.00;56616.03;4991934;28;20212;-68
2023/01/14 08:53:38;;;;;;;32.42;21.77;;;;;;;-142.91;100.00;56616.03;4989848;28;20211;-67
2023/01/14 08:56:07;;;;;;;33.25;22.52;;;;;;;-142.91;100.00;56616.03;4991159;28;20295;-69
2023/01/14 08:58:35;;;;;;;41.70;26.48;;;;;;;-142.91;100.00;56616.03;4988590;28;20246;-70
2023/01/14 09:01:03;;;;;;;37.42;25.48;;;;;;;-142.91;100.00;56616.03;4988494;28;20218;-67
2023/01/14 09:03:32;;;;;;;37.40;26.48;;;;;;;-142.91;100.00;56616.03;4987999;28;20214;-70
2023/01/14 09:06:00;;;;;;;35.78;23.30;;;;;;;-142.91;100.00;56616.03;4987156;28;20214;-67
2023/01/14 09:17:09;;;;;;;42.97;23.98;;;;;;;-142.91;100.00;56616.03;4925640;28;20284;-68
2023/01/14 09:19:40;;;;;;;62.35;24.17;;;;;;;-142.91;100.00;56616.03;4964358;28;21247;-70
2023/01/14 09:22:07;;;;;;;44.75;26.33;;;;;;;-142.91;100.00;56616.03;4987932;28;20210;-68
2023/01/14 09:24:35;;;;;;;33.67;23.85;;;;;;;-142.91;100.00;56616.03;4989026;28;20204;-68
2023/01/14 09:27:02;;;;;;;41.85;26.83;;;;;;;-142.91;100.00;56616.03;4988398;28;20215;-68
2023/01/14 09:29:29;;;;;;;45.42;27.33;;;;;;;-142.91;100.00;56616.03;4987829;28;20579;-67
2023/01/14 09:31:56;;;;;;;48.47;27.63;;;;;;;-142.91;100.00;56616.03;4988768;28;20223;-67
2023/01/14 09:34:22;;;;;;;56.15;36.42;;;;;;;-142.91;100.00;56616.03;4988644;28;20215;-68
2023/01/14 09:36:50;;;;;;;37.50;26.35;;;;;;;-142.91;100.00;56616.03;4988159;28;20739;-69
2023/01/14 09:39:17;;;;;;;33.17;24.58;;;;;;;-142.91;100.00;56616.03;4987257;28;20321;-69
2023/01/14 09:41:52;;;;;;;39.42;25.00;;;;;;;-142.91;100.00;56616.03;4987900;28;20274;-67
2023/01/14 09:44:20;;;;;;;46.95;29.33;;;;;;;-142.91;100.00;56616.03;4987066;28;20345;-67
2023/01/14 09:46:47;;;;;;;36.58;24.15;;;;;;;-142.91;100.00;56616.03;4988918;28;20204;-68
2023/01/14 09:49:18;;;;;;;34.35;23.67;;;;;;;-142.91;100.00;56616.03;4988949;28;20204;-67
2023/01/14 09:52:32;;;;;;;31.40;21.88;;;;;;;-142.91;100.00;56616.03;4988727;28;20506;-68
2023/01/14 09:55:09;;;;;;;31.65;21.88;;;;;;;-142.91;100.00;56616.03;4924332;28;20216;-70
2023/01/14 09:57:46;;;;;;;37.50;20.77;;;;;;;-142.91;100.00;56616.03;4991900;28;20222;-68
2023/01/14 10:00:32;;;;;;;34.92;21.63;;;;;;;-142.91;100.00;56616.03;4988153;28;20214;-69
2023/01/14 10:03:16;;;;;;;28.02;20.85;;;;;;;-142.91;100.00;56616.03;4990037;28;20653;-69
2023/01/14 10:05:51;;;;;;;30.52;21.23;;;;;;;-142.91;100.00;56616.03;4990815;28;20203;-68
2023/01/14 10:08:19;;;;;;;32.95;21.38;;;;;;;-142.91;100.00;56616.03;4990075;28;20202;-67
2023/01/14 10:10:47;;;;;;;32.30;19.90;;;;;;;-142.91;100.00;56616.03;4987433;28;20269;-67
2023/01/14 10:13:21;;;;;;;33.95;20.55;;;;;;;-142.91;100.00;56616.03;4989132;28;20711;-67
2023/01/14 10:15:52;;;;;;;32.38;21.98;;;;;;;-142.91;100.00;56616.03;4988721;28;20261;-69
2023/01/14 10:18:24;;;;;;;45.80;27.38;;;;;;;-142.91;100.00;56616.03;4992710;28;20206;-70
2023/01/14 10:20:57;;;;;;;39.00;24.58;;;;;;;-142.91;100.00;56616.03;4990987;28;20208;-67
2023/01/14 10:23:27;;;;;;;35.33;23.63;;;;;;;-142.91;100.00;56616.03;4992410;28;20583;-69
2023/01/14 10:25:56;;;;;;;38.25;24.75;;;;;;;-142.91;100.00;56616.03;4990916;28;20214;-69
2023/01/14 10:28:27;;;;;;;30.35;21.85;;;;;;;-142.91;100.00;56616.03;4987534;28;20211;-69
2023/01/14 10:30:54;;;;;;;31.05;21.83;;;;;;;-142.91;100.00;56616.03;4984949;28;20650;-67
2023/01/14 10:33:23;;;;;;;29.35;22.27;;;;;;;-142.91;100.00;56616.03;4987354;28;20211;-71
2023/01/14 10:35:53;;;;;;;30.02;21.38;;;;;;;-142.91;100.00;56616.03;4986808;28;20238;-69
2023/01/14 10:38:23;;;;;;;30.15;20.55;;;;;;;-142.91;100.00;56616.03;4985278;28;20215;-68
2023/01/14 10:40:53;;;;;;;25.23;19.23;;;;;;;-142.91;100.00;56616.03;4985151;28;20301;-68
2023/01/14 10:43:28;;;;;;;25.50;19.42;;;;;;;-142.91;100.00;56616.03;4987405;28;20214;-70
2023/01/14 10:45:55;;;;;;;28.05;19.85;;;;;;;-142.91;100.00;56616.03;4986856;28;20638;-68
2023/01/14 10:48:22;;;;;;;28.23;20.65;;;;;;;-142.91;100.00;56616.03;4986689;28;20208;-72
2023/01/14 10:50:49;;;;;;;26.23;19.95;;;;;;;-142.91;100.00;56616.03;4986542;28;20211;-67
2023/01/14 10:53:21;;;;;;;25.83;20.05;;;;;;;-142.91;100.00;56616.03;4986474;28;20219;-68
2023/01/14 10:55:52;;;;;;;33.83;20.17;;;;;;;-142.91;100.00;56616.03;4986680;28;20223;-69
2023/01/14 10:58:27;;;;;;;28.00;19.75;;;;;;;-142.91;100.00;56616.03;4987216;28;20204;-68
2023/01/14 11:01:03;;;;;;;30.13;19.10;;;;;;;-142.91;100.00;56616.03;4986025;28;20207;-69
2023/01/14 11:03:32;;;;;;;36.95;21.35;;;;;;;-142.91;100.00;56616.03;4985362;28;20207;-69
2023/01/14 11:06:02;;;;;;;37.97;22.55;;;;;;;-142.91;100.00;56616.03;4993067;28;20212;-69
2023/01/14 11:08:34;;;;;;;32.53;21.33;;;;;;;-142.91;100.00;56616.03;4991727;28;20204;-68
2023/01/14 11:11:03;;;;;;;28.08;20.05;;;;;;;-142.91;100.00;56616.03;4991240;28;20207;-69
2023/01/14 11:13:33;;;;;;;27.83;19.38;;;;;;;-142.91;100.00;56616.03;4987191;28;20677;-68
2023/01/14 11:16:01;;;;;;;36.63;21.05;;;;;;;-142.91;100.00;56616.03;4988074;28;20224;-68
2023/01/14 11:18:32;;;;;;;35.80;22.00;;;;;;;-142.91;100.00;56616.03;4990871;28;20290;-70
2023/01/14 11:21:09;;;;;;;29.58;20.70;;;;;;;-142.91;100.00;56616.03;4992068;28;20739;-69
2023/01/14 11:23:38;;;;;;;27.73;18.10;;;;;;;-142.91;100.00;56616.03;4992069;28;20207;-70
2023/01/14 11:26:08;;;;;;;21.73;16.55;;;;;;;-142.91;100.00;56616.03;4991805;28;20263;-70
2023/01/14 11:28:42;;;;;;;23.42;15.80;;;;;;;-142.91;100.00;56616.03;4993124;28;20215;-69
2023/01/14 11:31:09;;;;;;;18.70;15.00;;;;;;;-142.91;100.00;56616.03;4995066;28;22298;-69